Decoded Metar for WBGS (SIBU in MALAYSIA) (IATA:SBW) | Meteo·Mobile Aviation Weather
aviador You're here:

WBGS Decoded Metar

SIBU in MALAYSIA
Report Time2019-01-19 16:00:00
UTC Time2019-01-19 16:41:10
Flight Rules vfr VFR
WindCalm
Visibility9999 m
Phenomena:N/A
Clouds:Scattered 018 Hf
Broken 150 Hf
Ceiling15,000 ft
Temp24°C (ISA +9)
Dew Point24°C (100% RH)
QNH1011 hPa
Density Alt1,535 ft
Elevation26 ft
Report Wrong Elevation
Raw Report
METAR WBGS 191600Z 00000KT 9999 SCT018 BKN150 24/24 Q1011=

Extra information for WBGS:More info

Metar Taf Metar & Taf Last 4 Metars F.Rules Stats Wind Profile Meteogram Temp Stats Airport Information Weather charts Add Link Nearby VenuesMetar ALERT Operation Metar Decoded Social comments